Terminal Aerodrome Forecast
Issued by NWS

Home | Current Version | Previous Version | Text Only | Print | Product List | Glossary On
Versions: 1 2 3 4 5 6 7 8 9 10 11 12 13 14 15 16 17 18
000
FTUS45 KTFX 300609 RRB
TAFBZN
TAF
KBZN 300609Z 3006/3106 15005KT P6SM VCSH BKN100
     FM301700 27010KT 6SM HZ SCT100=

USA.gov is the U.S. government's official web portal to all federal, state and local government web resources and services.